createdAt,value
2018-07-22T00:01:58.153Z,74.60
2018-07-22T00:04:31.305Z,74.60
2018-07-22T00:07:04.530Z,74.70
2018-07-22T00:12:09.891Z,74.80
2018-07-22T00:14:43.062Z,74.80
2018-07-22T00:17:15.970Z,74.40
2018-07-22T00:19:48.985Z,75.00
2018-07-22T00:22:22.762Z,75.00
2018-07-22T00:24:55.802Z,75.10
2018-07-22T00:27:29.823Z,75.00
2018-07-22T00:30:02.796Z,75.00
2018-07-22T00:32:35.783Z,75.00
2018-07-22T00:35:08.900Z,75.00
2018-07-22T00:37:42.331Z,75.00
2018-07-22T00:40:15.711Z,75.10
2018-07-22T00:42:48.752Z,75.10
2018-07-22T00:45:21.809Z,75.10
2018-07-22T00:47:54.787Z,75.10
2018-07-22T00:50:27.752Z,75.00
2018-07-22T00:55:33.367Z,75.10
2018-07-22T00:58:06.472Z,75.10
2018-07-22T01:00:39.549Z,75.10
2018-07-22T01:03:12.563Z,75.20
2018-07-22T01:05:47.504Z,75.10
2018-07-22T01:08:20.370Z,75.10
2018-07-22T01:10:53.312Z,75.10
2018-07-22T01:13:26.273Z,75.20
2018-07-22T01:15:59.271Z,75.10
2018-07-22T01:18:32.774Z,75.10
2018-07-22T01:21:05.827Z,75.10
2018-07-22T01:23:40.248Z,74.50
2018-07-22T01:26:13.385Z,75.20
2018-07-22T01:28:46.405Z,75.10
2018-07-22T01:31:19.500Z,75.10
2018-07-22T01:33:52.556Z,75.10
2018-07-22T01:36:26.166Z,75.10
2018-07-22T01:38:59.099Z,75.10
2018-07-22T01:41:32.247Z,75.10
2018-07-22T01:44:05.500Z,75.10
2018-07-22T01:46:38.670Z,75.00
2018-07-22T01:51:43.822Z,75.10
2018-07-22T01:54:16.762Z,75.00
2018-07-22T01:56:49.867Z,75.00
2018-07-22T01:59:22.962Z,75.00
2018-07-22T02:01:57.435Z,74.90
2018-07-22T02:04:30.543Z,74.90
2018-07-22T02:07:05.301Z,74.90
2018-07-22T02:09:38.611Z,75.00
2018-07-22T02:12:11.714Z,74.90
2018-07-22T02:17:17.010Z,74.90
2018-07-22T02:19:50.414Z,74.90
2018-07-22T02:22:23.365Z,74.90
2018-07-22T02:24:56.340Z,74.90
2018-07-22T02:27:29.314Z,74.80
2018-07-22T02:30:02.389Z,74.90
2018-07-22T02:32:36.106Z,74.90
2018-07-22T02:35:09.285Z,74.80
2018-07-22T02:37:42.398Z,74.80
2018-07-22T02:40:15.445Z,74.90
2018-07-22T02:42:48.422Z,74.80
2018-07-22T02:45:21.543Z,74.30
2018-07-22T02:47:54.707Z,74.90
2018-07-22T02:50:27.757Z,74.90
2018-07-22T02:53:01.781Z,74.80
2018-07-22T02:55:35.229Z,74.90
2018-07-22T02:58:08.643Z,74.90
2018-07-22T03:00:41.732Z,75.10
2018-07-22T03:05:47.499Z,75.10
2018-07-22T03:08:20.511Z,75.20
2018-07-22T03:10:53.527Z,75.20
2018-07-22T03:13:26.567Z,75.30
2018-07-22T03:18:34.538Z,75.60
2018-07-22T03:21:08.786Z,75.40
2018-07-22T03:23:41.845Z,75.40
2018-07-22T03:26:14.921Z,75.40
2018-07-22T03:28:48.400Z,75.40
2018-07-22T03:31:21.578Z,75.40
2018-07-22T03:33:54.553Z,75.30
2018-07-22T03:36:27.635Z,75.30
2018-07-22T03:39:00.548Z,75.30
2018-07-22T03:41:35.690Z,75.30
2018-07-22T03:44:08.828Z,76.10
2018-07-22T03:46:43.054Z,75.40
2018-07-22T03:49:16.146Z,75.40
2018-07-22T03:51:49.182Z,75.50
2018-07-22T03:54:22.325Z,75.60
2018-07-22T03:56:55.467Z,74.80
2018-07-22T03:59:28.833Z,75.40
2018-07-22T04:02:01.998Z,75.40
2018-07-22T04:04:35.934Z,75.20
2018-07-22T04:07:08.938Z,75.20
2018-07-22T04:09:41.975Z,75.10
2018-07-22T04:12:15.516Z,75.00
2018-07-22T04:14:48.582Z,74.80
2018-07-22T04:17:21.641Z,74.80
2018-07-22T04:19:54.717Z,74.80
2018-07-22T04:22:27.778Z,74.80
2018-07-22T04:25:01.936Z,74.60
2018-07-22T04:27:35.022Z,74.50
2018-07-22T04:30:08.670Z,74.40
2018-07-22T04:32:41.810Z,74.30
2018-07-22T04:35:14.824Z,74.20
2018-07-22T04:37:47.955Z,74.20
2018-07-22T04:40:20.955Z,74.00
2018-07-22T04:42:54.062Z,74.00
2018-07-22T04:45:27.025Z,74.00
2018-07-22T04:47:59.922Z,73.90
2018-07-22T04:50:33.850Z,73.60
2018-07-22T04:53:06.908Z,73.80
2018-07-22T04:55:40.718Z,73.60
2018-07-22T04:58:13.781Z,73.60
2018-07-22T05:00:46.792Z,73.50
2018-07-22T05:03:19.805Z,73.20
2018-07-22T05:05:52.741Z,73.00
2018-07-22T05:08:27.346Z,73.00
2018-07-22T05:11:00.474Z,72.90
2018-07-22T05:13:33.615Z,72.80
2018-07-22T05:16:06.675Z,72.80
2018-07-22T05:18:39.812Z,72.80
2018-07-22T05:21:14.274Z,72.70
2018-07-22T05:23:47.493Z,72.50
2018-07-22T05:26:20.622Z,71.90
2018-07-22T05:28:53.707Z,72.50
2018-07-22T05:31:26.771Z,72.50
2018-07-22T05:33:59.885Z,72.50
2018-07-22T05:36:32.945Z,72.40
2018-07-22T05:39:06.633Z,72.40
2018-07-22T05:41:39.612Z,72.40
2018-07-22T05:44:12.679Z,72.40
2018-07-22T05:46:45.770Z,72.20
2018-07-22T05:49:18.731Z,72.20
2018-07-22T05:51:52.300Z,72.20
2018-07-22T05:54:25.328Z,72.20
2018-07-22T05:56:58.447Z,72.10
2018-07-22T05:59:31.715Z,72.10
2018-07-22T06:02:04.762Z,72.10
2018-07-22T06:07:11.002Z,72.30
2018-07-22T06:09:44.370Z,72.20
2018-07-22T06:12:17.415Z,72.30
2018-07-22T06:14:50.474Z,72.20
2018-07-22T06:17:24.373Z,72.30
2018-07-22T06:19:57.349Z,72.30
2018-07-22T06:22:31.082Z,72.20
2018-07-22T06:25:04.063Z,72.20
2018-07-22T06:27:37.085Z,72.20
2018-07-22T06:30:10.322Z,72.20
2018-07-22T06:32:43.381Z,72.20
2018-07-22T06:35:18.639Z,72.10
2018-07-22T06:37:51.912Z,72.00
2018-07-22T06:40:24.990Z,72.00
2018-07-22T06:42:58.094Z,72.00
2018-07-22T06:45:31.709Z,72.00
2018-07-22T06:48:05.283Z,71.90
2018-07-22T06:50:38.537Z,71.90
2018-07-22T06:53:12.540Z,71.80
2018-07-22T06:55:46.706Z,71.80
2018-07-22T06:58:19.837Z,71.80
2018-07-22T07:00:54.438Z,71.70
2018-07-22T07:03:27.465Z,71.60
2018-07-22T07:06:00.647Z,71.60
2018-07-22T07:08:33.723Z,71.50
2018-07-22T07:11:06.727Z,71.40
2018-07-22T07:13:39.828Z,71.40
2018-07-22T07:16:12.875Z,71.50
2018-07-22T07:18:45.982Z,71.50
2018-07-22T07:21:19.002Z,71.70
2018-07-22T07:23:52.086Z,71.70
2018-07-22T07:26:25.175Z,71.80
2018-07-22T07:28:58.288Z,71.70
2018-07-22T07:34:03.703Z,71.90
2018-07-22T07:36:36.863Z,71.70
2018-07-22T07:39:13.625Z,71.90
2018-07-22T07:41:46.592Z,71.70
2018-07-22T07:46:52.529Z,71.90
2018-07-22T07:49:25.624Z,71.90
2018-07-22T07:51:58.710Z,71.90
2018-07-22T07:54:31.769Z,72.00
2018-07-22T07:57:05.490Z,71.90
2018-07-22T07:59:38.451Z,71.90
2018-07-22T08:02:12.143Z,71.90
2018-07-22T08:04:45.162Z,71.90
2018-07-22T08:07:18.101Z,72.00
2018-07-22T08:09:51.185Z,72.00
2018-07-22T08:12:25.407Z,72.00
2018-07-22T08:17:30.440Z,72.00
2018-07-22T08:20:03.563Z,71.90
2018-07-22T08:22:36.542Z,71.90
2018-07-22T08:25:09.950Z,71.90
2018-07-22T08:27:44.218Z,72.10
2018-07-22T08:30:17.407Z,72.10
2018-07-22T08:32:50.710Z,72.00
2018-07-22T08:35:23.746Z,72.80
2018-07-22T08:37:56.855Z,72.00
2018-07-22T08:40:30.151Z,72.00
2018-07-22T08:43:03.189Z,72.10
2018-07-22T08:45:36.226Z,72.10
2018-07-22T08:48:10.635Z,72.00
2018-07-22T08:50:43.787Z,72.00
2018-07-22T08:53:17.632Z,72.00
2018-07-22T08:55:50.687Z,71.90
2018-07-22T09:00:56.750Z,72.00
2018-07-22T09:03:29.886Z,72.00
2018-07-22T09:06:04.167Z,71.80
2018-07-22T09:08:37.423Z,71.80
2018-07-22T09:11:11.249Z,72.60
2018-07-22T09:13:44.344Z,71.80
2018-07-22T09:16:17.731Z,72.60
2018-07-22T09:18:50.787Z,71.80
2018-07-22T09:21:24.830Z,71.80
2018-07-22T09:23:58.173Z,71.80
2018-07-22T09:26:32.069Z,71.80
2018-07-22T09:29:05.035Z,71.70
2018-07-22T09:31:38.047Z,71.70
2018-07-22T09:34:11.123Z,71.70
2018-07-22T09:36:44.425Z,71.60
2018-07-22T09:39:17.429Z,71.70
2018-07-22T09:41:50.509Z,71.60
2018-07-22T09:44:23.685Z,72.30
2018-07-22T09:46:56.705Z,71.60
2018-07-22T09:49:30.650Z,71.60
2018-07-22T09:52:03.760Z,71.60
2018-07-22T09:57:09.311Z,71.60
2018-07-22T09:59:42.352Z,71.50
2018-07-22T10:02:15.430Z,71.60
2018-07-22T10:04:48.457Z,71.40
2018-07-22T10:07:23.097Z,71.40
2018-07-22T10:09:56.102Z,71.50
2018-07-22T10:12:29.043Z,71.50
2018-07-22T10:15:02.861Z,71.60
2018-07-22T10:17:36.546Z,71.40
2018-07-22T10:20:10.992Z,71.50
2018-07-22T10:22:44.082Z,71.50
2018-07-22T10:25:17.107Z,71.50
2018-07-22T10:27:50.165Z,71.60
2018-07-22T10:30:23.325Z,71.20
2018-07-22T10:32:57.563Z,71.80
2018-07-22T10:35:30.573Z,71.70
2018-07-22T10:40:36.671Z,71.60
2018-07-22T10:43:09.732Z,71.50
2018-07-22T10:45:42.824Z,71.30
2018-07-22T10:48:15.881Z,71.30
2018-07-22T10:50:50.876Z,71.30
2018-07-22T10:53:23.944Z,71.20
2018-07-22T10:55:57.013Z,71.20
2018-07-22T10:58:30.144Z,71.10
2018-07-22T11:01:03.233Z,71.10
2018-07-22T11:03:36.958Z,71.20
2018-07-22T11:06:10.035Z,71.00
2018-07-22T11:08:42.999Z,70.90
2018-07-22T11:11:16.103Z,70.70
2018-07-22T11:13:49.237Z,71.00
2018-07-22T11:16:22.482Z,71.00
2018-07-22T11:18:55.509Z,70.80
2018-07-22T11:21:28.679Z,71.00
2018-07-22T11:24:01.652Z,71.00
2018-07-22T11:26:34.646Z,70.90
2018-07-22T11:29:07.786Z,70.80
2018-07-22T11:31:40.796Z,70.90
2018-07-22T11:34:14.862Z,70.80
2018-07-22T11:36:48.002Z,70.70
2018-07-22T11:39:21.096Z,70.80
2018-07-22T11:41:54.263Z,70.70
2018-07-22T11:44:27.414Z,70.60
2018-07-22T11:47:01.870Z,70.60
2018-07-22T11:49:35.469Z,70.40
2018-07-22T11:52:08.446Z,70.40
2018-07-22T11:54:42.487Z,70.60
2018-07-22T11:57:15.601Z,70.60
2018-07-22T11:59:49.035Z,70.60
2018-07-22T12:02:22.228Z,70.50
2018-07-22T12:04:55.312Z,70.50
2018-07-22T12:07:28.288Z,70.60
2018-07-22T12:10:01.344Z,70.50
2018-07-22T12:12:35.044Z,70.70
2018-07-22T12:15:08.227Z,70.60
2018-07-22T12:17:41.311Z,70.60
2018-07-22T12:20:14.329Z,70.40
2018-07-22T12:22:47.417Z,70.30
2018-07-22T12:25:21.778Z,70.40
2018-07-22T12:27:54.767Z,70.40
2018-07-22T12:32:59.685Z,70.40
2018-07-22T12:35:32.658Z,70.40
2018-07-22T12:38:05.652Z,70.40
2018-07-22T12:40:39.218Z,70.20
2018-07-22T12:43:13.289Z,69.60
2018-07-22T12:45:46.354Z,70.30
2018-07-22T12:48:19.346Z,70.40
2018-07-22T12:53:25.077Z,70.50
2018-07-22T12:56:09.904Z,70.50
2018-07-22T12:58:50.432Z,69.90
2018-07-22T13:01:23.506Z,69.70
2018-07-22T13:03:56.685Z,69.80
2018-07-22T13:06:29.672Z,70.50
2018-07-22T13:09:02.714Z,69.90
2018-07-22T13:11:35.855Z,70.50
2018-07-22T13:14:10.655Z,70.50
2018-07-22T13:16:43.806Z,70.50
2018-07-22T13:19:16.921Z,70.40
2018-07-22T13:21:50.010Z,70.30
2018-07-22T13:24:22.958Z,70.30
2018-07-22T13:26:55.997Z,70.30
2018-07-22T13:29:28.926Z,70.20
2018-07-22T13:32:01.968Z,70.30
2018-07-22T13:34:35.856Z,70.30
2018-07-22T13:37:09.475Z,70.30
2018-07-22T13:39:43.382Z,70.50
2018-07-22T13:42:16.501Z,70.50
2018-07-22T13:44:49.592Z,70.50
2018-07-22T13:47:22.670Z,70.40
2018-07-22T13:49:55.842Z,70.30
2018-07-22T13:52:29.939Z,70.30
2018-07-22T13:55:02.923Z,70.00
2018-07-22T13:57:36.022Z,69.80
2018-07-22T14:00:09.495Z,69.80
2018-07-22T14:02:42.430Z,69.60
2018-07-22T14:05:16.854Z,70.60
2018-07-22T14:07:49.871Z,69.80
2018-07-22T14:10:23.029Z,69.60
2018-07-22T14:12:56.083Z,69.80
2018-07-22T14:15:29.126Z,69.20
2018-07-22T14:18:02.247Z,69.90
2018-07-22T14:20:36.238Z,70.10
2018-07-22T14:23:09.600Z,69.50
2018-07-22T14:25:44.308Z,70.10
2018-07-22T14:28:17.395Z,70.00
2018-07-22T14:30:50.522Z,70.10
2018-07-22T14:33:23.575Z,70.30
2018-07-22T14:38:28.979Z,70.50
2018-07-22T14:41:02.395Z,70.70
2018-07-22T14:43:35.477Z,70.70
2018-07-22T14:46:08.602Z,70.90
2018-07-22T14:51:13.566Z,71.00
2018-07-22T14:53:46.632Z,71.00
2018-07-22T14:56:21.841Z,71.10
2018-07-22T14:58:54.991Z,71.20
2018-07-22T15:01:29.346Z,71.20
2018-07-22T15:04:05.059Z,71.30
2018-07-22T15:06:39.159Z,71.40
2018-07-22T15:09:12.683Z,71.40
2018-07-22T15:11:45.702Z,71.50
2018-07-22T15:14:18.781Z,71.60
2018-07-22T15:16:51.841Z,71.60
2018-07-22T15:19:39.689Z,71.60
2018-07-22T15:22:12.862Z,71.50
2018-07-22T15:24:47.094Z,71.50
2018-07-22T15:27:21.310Z,71.50
2018-07-22T15:29:54.383Z,71.60
2018-07-22T15:32:28.653Z,71.60
2018-07-22T15:35:03.289Z,71.70
2018-07-22T15:37:36.275Z,71.60
2018-07-22T15:40:10.412Z,71.70
2018-07-22T15:42:43.549Z,71.70
2018-07-22T15:45:17.005Z,71.80
2018-07-22T15:47:50.150Z,72.00
2018-07-22T15:50:23.157Z,72.10
2018-07-22T15:52:56.239Z,72.40
2018-07-22T15:55:29.339Z,73.20
2018-07-22T15:58:03.821Z,73.70
2018-07-22T16:00:36.907Z,74.10
2018-07-22T16:03:10.320Z,74.40
2018-07-22T16:05:43.215Z,74.90
2018-07-22T16:08:16.254Z,72.50
2018-07-22T16:15:06.229Z,65.40
2018-07-22T16:17:39.750Z,64.70
2018-07-22T16:20:13.211Z,60.60
2018-07-22T16:22:46.442Z,59.40
2018-07-22T16:25:19.453Z,58.10
2018-07-22T16:27:52.409Z,56.90
2018-07-22T16:30:25.859Z,57.40
2018-07-22T16:32:59.437Z,56.80
2018-07-22T16:35:32.539Z,55.60
2018-07-22T16:38:05.642Z,54.90
2018-07-22T16:40:38.658Z,54.40
2018-07-22T16:43:12.049Z,53.80
2018-07-22T16:45:45.180Z,53.40
2018-07-22T16:48:18.722Z,53.60
2018-07-22T16:50:51.836Z,52.20
2018-07-22T16:53:24.885Z,52.70
2018-07-22T16:55:57.798Z,52.30
2018-07-22T16:58:30.856Z,52.10
2018-07-22T17:01:06.966Z,51.10
2018-07-22T17:03:40.039Z,51.60
2018-07-22T17:06:13.190Z,51.40
2018-07-22T17:08:46.262Z,51.20
2018-07-22T17:13:51.973Z,51.00
2018-07-22T17:16:24.993Z,54.50
2018-07-22T17:18:57.979Z,55.60
2018-07-22T17:21:31.030Z,54.20
2018-07-22T17:24:03.978Z,53.40
2018-07-22T17:26:37.070Z,52.80
2018-07-22T17:29:10.151Z,52.40
2018-07-22T17:31:43.853Z,52.10
2018-07-22T17:34:16.765Z,53.30
2018-07-22T17:36:49.861Z,56.10
2018-07-22T17:39:22.938Z,56.50
2018-07-22T17:41:56.027Z,57.00
2018-07-22T17:44:29.732Z,55.50
2018-07-22T17:47:02.834Z,54.50
2018-07-22T17:49:35.934Z,57.20
2018-07-22T17:52:08.964Z,58.80
2018-07-22T17:54:42.032Z,59.20
2018-07-22T17:59:47.234Z,56.10
2018-07-22T18:02:20.402Z,55.00
2018-07-22T18:04:53.545Z,58.10
2018-07-22T18:07:26.602Z,59.80
2018-07-22T18:09:59.570Z,60.00
2018-07-22T18:12:32.563Z,58.10
2018-07-22T18:15:05.825Z,56.80
2018-07-22T18:17:38.877Z,58.90
2018-07-22T18:20:12.015Z,60.70
2018-07-22T18:22:45.104Z,60.30
2018-07-22T18:25:18.143Z,58.40
2018-07-22T18:27:52.069Z,57.90
2018-07-22T18:30:25.105Z,60.70
2018-07-22T18:32:58.093Z,62.20
2018-07-22T18:35:32.078Z,61.10
2018-07-22T18:38:05.118Z,58.80
2018-07-22T18:40:38.622Z,60.30
2018-07-22T18:43:12.084Z,62.80
2018-07-22T18:48:18.172Z,61.60
2018-07-22T18:50:51.413Z,59.10
2018-07-22T18:53:24.733Z,59.00
2018-07-22T18:55:57.737Z,61.90
2018-07-22T18:58:30.724Z,63.80
2018-07-22T19:01:03.718Z,62.20
2018-07-22T19:03:36.865Z,59.70
2018-07-22T19:06:09.749Z,60.00
2018-07-22T19:08:42.875Z,62.90
2018-07-22T19:11:16.559Z,64.80
2018-07-22T19:13:49.506Z,62.80
2018-07-22T19:16:22.551Z,60.00
2018-07-22T19:18:55.644Z,59.20
2018-07-22T19:21:28.670Z,62.10
2018-07-22T19:24:02.023Z,64.30
2018-07-22T19:26:34.985Z,63.40
2018-07-22T19:29:07.928Z,60.70
2018-07-22T19:31:41.067Z,60.10
2018-07-22T19:34:14.153Z,62.70
2018-07-22T19:36:48.106Z,64.80
2018-07-22T19:39:21.186Z,63.00
2018-07-22T19:41:54.191Z,62.40
2018-07-22T19:44:28.165Z,64.90
2018-07-22T19:47:01.089Z,66.40
2018-07-22T19:49:34.115Z,64.50
2018-07-22T19:52:07.180Z,64.30
2018-07-22T19:54:40.340Z,66.90
2018-07-22T19:57:13.401Z,68.00
2018-07-22T19:59:46.532Z,65.50
2018-07-22T20:02:19.566Z,62.30
2018-07-22T20:04:52.512Z,65.00
2018-07-22T20:07:26.027Z,66.60
2018-07-22T20:09:59.072Z,67.40
2018-07-22T20:12:32.121Z,63.90
2018-07-22T20:15:05.866Z,63.90
2018-07-22T20:17:38.843Z,66.20
2018-07-22T20:20:14.919Z,67.50
2018-07-22T20:22:47.875Z,65.20
2018-07-22T20:25:20.900Z,63.50
2018-07-22T20:27:53.977Z,66.50
2018-07-22T20:30:27.092Z,67.90
2018-07-22T20:33:00.298Z,66.10
2018-07-22T20:35:34.589Z,64.50
2018-07-22T20:38:07.589Z,67.00
2018-07-22T20:40:40.513Z,68.20
2018-07-22T20:43:14.082Z,66.70
2018-07-22T20:45:47.113Z,64.60
2018-07-22T20:48:20.167Z,66.90
2018-07-22T20:53:25.136Z,66.80
2018-07-22T20:55:58.073Z,64.20
2018-07-22T20:58:31.485Z,66.10
2018-07-22T21:01:04.477Z,67.50
2018-07-22T21:06:10.716Z,64.40
2018-07-22T21:08:43.787Z,64.80
2018-07-22T21:11:17.057Z,67.30
2018-07-22T21:13:50.145Z,68.50
2018-07-22T21:16:23.870Z,65.60
2018-07-22T21:18:56.932Z,64.60
2018-07-22T21:21:29.885Z,66.90
2018-07-22T21:24:02.987Z,68.20
2018-07-22T21:26:36.055Z,66.60
2018-07-22T21:29:09.221Z,65.40
2018-07-22T21:31:42.328Z,68.00
2018-07-22T21:34:16.056Z,69.40
2018-07-22T21:36:49.083Z,66.90
2018-07-22T21:39:22.215Z,64.50
2018-07-22T21:41:56.455Z,66.70
2018-07-22T21:44:30.298Z,68.50
2018-07-22T21:47:03.480Z,68.20
2018-07-22T21:49:36.584Z,65.00
2018-07-22T21:52:09.752Z,67.50
2018-07-22T21:54:42.782Z,69.10
2018-07-22T21:57:15.828Z,68.80
2018-07-22T21:59:48.819Z,65.20
2018-07-22T22:02:22.199Z,67.20
2018-07-22T22:04:55.343Z,68.50
2018-07-22T22:07:28.467Z,69.80
2018-07-22T22:10:01.843Z,65.80
2018-07-22T22:15:09.754Z,69.20
2018-07-22T22:17:43.282Z,69.60
2018-07-22T22:20:16.275Z,65.80
2018-07-22T22:22:49.389Z,67.70
2018-07-22T22:25:22.582Z,68.90
2018-07-22T22:27:55.806Z,69.90
2018-07-22T22:30:29.351Z,66.50
2018-07-22T22:33:02.324Z,68.60
2018-07-22T22:35:35.422Z,70.00
2018-07-22T22:38:08.525Z,68.60
2018-07-22T22:40:42.617Z,66.30
2018-07-22T22:43:16.974Z,68.40
2018-07-22T22:45:50.670Z,69.70
2018-07-22T22:48:29.207Z,68.20
2018-07-22T22:51:03.482Z,65.70
2018-07-22T22:53:36.643Z,68.30
2018-07-22T22:56:09.655Z,69.90
2018-07-22T22:58:51.547Z,68.90
2018-07-22T23:01:24.595Z,65.70
2018-07-22T23:03:57.765Z,67.80
2018-07-22T23:11:47.887Z,66.30
2018-07-22T23:14:20.910Z,68.60
2018-07-22T23:16:53.813Z,69.90
2018-07-22T23:19:26.837Z,68.00
2018-07-22T23:21:59.967Z,67.70
2018-07-22T23:24:32.938Z,69.80
2018-07-22T23:27:06.161Z,70.90
2018-07-22T23:29:39.201Z,67.70
2018-07-22T23:32:12.562Z,68.70
2018-07-22T23:34:45.652Z,70.30
2018-07-22T23:37:18.617Z,71.20
2018-07-22T23:39:52.291Z,68.00
2018-07-22T23:42:25.355Z,65.40
2018-07-22T23:44:58.448Z,64.10
2018-07-22T23:47:31.524Z,66.90
2018-07-22T23:50:04.671Z,68.50
2018-07-22T23:52:38.866Z,68.00
2018-07-22T23:55:11.797Z,67.70
2018-07-22T23:57:44.883Z,67.40
